Nearby METAR Reports

 

EGVN - Brize Norton Raf, United Kingdom
Distance from station: SSE 20mi, 32km
Updated: 21/11/2018 16:50
Mostly cloudy
Mostly cloudy
 Wind from ESE
Wind: ESE 9 mph , 15 km/h
Temperature: 6°C
Wind Chill: 3°C
Dew Point: 2°C
Humidity: 76%
Barometer: 1014 hPa
Clouds: Mostly cloudy
Visibility: 6 miles , 10 km
Cloud details: Few Clouds 762 m
Partly cloudy 853 m
Mostly cloudy 1372 m
2018/11/21 16:50 EGVN 211650Z 12008KT 9999 FEW025 SCT028 BKN045 06/02 Q1014 BLU NOSIG
EGTK - Oxford, United Kingdom
Distance from station: SE 22mi, 35km
Updated: 21/11/2018 16:50
Partly cloudy
Partly cloudy
 Wind from ESE
Wind: ESE 8 mph , 13 km/h
Temperature: 4°C
Wind Chill: 1°C
Dew Point: 1°C
Humidity: 81%
Barometer: 1015 hPa
Clouds: Partly cloudy
Visibility: 6 miles , 10 km
Cloud details: Partly cloudy 1311 m
2018/11/21 16:50 EGTK 211650Z 11007KT 9999 SCT043 04/01 Q1015
 
EGBJ - Staverton (priva, United Kingdom
Distance from station: WSW 23mi, 36km
Updated: 21/11/2018 16:50
Few Clouds
Few Clouds
 Wind from SE
Wind: SE 10 mph , 17 km/h
Temperature: 6°C
Wind Chill: 3°C
Dew Point: 4°C
Humidity: 87%
Barometer: 1014 hPa
Clouds: Few Clouds
Visibility: 6 miles , 10 km
Cloud details: Few Clouds 488 m
2018/11/21 16:50 EGBJ 211650Z 13009KT 9999 FEW016 06/04 Q1014
EGVA - Fairford Raf, United Kingdom
Distance from station: S 27mi, 43km
Updated: 21/11/2018 16:56
Overcast
Overcast
 Wind from ESE
Wind: ESE 10 mph , 17 km/h
Temperature: 5°C
Wind Chill: 2°C
Dew Point: 3°C
Humidity: 87%
Barometer: 1014.2 hPa
Clouds: Overcast
Visibility: 6 miles , 10 km
Cloud details: Mostly cloudy 792 m
Mostly cloudy 1036 m
Overcast 1250 m
2018/11/21 16:56 EGVA 211656Z AUTO 11009KT 9999 BKN026 BKN034 OVC041 05/03 A2995 RMK AO2 CIG 025 RWY09 SLP149 T00530026 $
 
EGBB - Birmingham Airpo, United Kingdom
Distance from station: N 29mi, 46km
Updated: 21/11/2018 16:50
Mostly cloudy
Mostly cloudy
 Wind from SE
Wind: SE 10 mph , 17 km/h
Temperature: 5°C
Wind Chill: 2°C
Dew Point: 1°C
Humidity: 76%
Barometer: 1015 hPa
Clouds: Mostly cloudy
Visibility: 6 miles , 10 km
Cloud details: Few Clouds 914 m
Mostly cloudy 1250 m
2018/11/21 16:50 EGBB 211650Z 13009KT 9999 FEW030 BKN041 05/01 Q1015
EGUB - Benson Raf, United Kingdom
Distance from station: SE 40mi, 65km
Updated: 21/11/2018 16:50
Few Clouds
Few Clouds
 Wind from ESE
Wind: ESE 12 mph , 19 km/h
Temperature: 4°C
Wind Chill: 0°C
Dew Point: 0°C
Humidity: 75%
Barometer: 1015 hPa
Clouds: Few Clouds
Visibility: 6 miles , 10 km
Cloud details: Few Clouds 1219 m
2018/11/21 16:50 EGUB 211650Z 12010KT 9999 FEW040 04/00 Q1015 BLU NOSIG
 
EGTC - Cranfield, United Kingdom
Distance from station: E 46mi, 74km
Updated: 21/11/2018 16:50
Partly cloudy
Partly cloudy
 Wind from ESE
Wind: ESE 12 mph , 19 km/h
Temperature: 4°C
Wind Chill: 0°C
Dew Point: 3°C
Humidity: 93%
Barometer: 1015 hPa
Clouds: Partly cloudy
Visibility: 5 miles , 8 km
2018/11/21 16:50 EGTC 211650Z 11010KT 8000 NSC 04/03 Q1015
EGWC - Cosford Raf, United Kingdom
Distance from station: NNW 46mi, 75km
Updated: 21/11/2018 14:50
NOT Current
Haze, Mostly cloudy
Haze, Mostly cloudy
 Wind from SE
Wind: SE 10 mph , 17 km/h
Temperature: 5°C
Wind Chill: 2°C
Dew Point: 3°C
Humidity: 87%
Barometer: 1012 hPa
Summary: Haze
Clouds: Mostly cloudy
Visibility: 5 miles , 8 km
Cloud details: Mostly cloudy 488 m
2018/11/21 14:50 EGWC 211450Z 13009KT 8000 HZ BKN016 05/03 Q1012 WHT